BAW12T EGKK-EGPH
Flight info
| Callsign | BAW12T |
|---|---|
| Flight time | 1h 1m |
| Altitude | 38000 |
| Route | LAM L10 BPK UN601 RIBEL DCT INPIP |
| Aircraft | A20N/M-SDE2E3FGHIRWXY/LB1 |
Departure
| Time | 2026-05-03 22:10 |
|---|---|
| Airport | London Gatwick Airport (EGKK) |
Arrival
| Time | 2026-05-03 23:11 |
|---|---|
| Airport | Edinburgh Airport (EGPH) |
| Time | Latitude | Longitude | Altitude | Speed | Heading |
|---|---|---|---|---|---|
| 2026-05-03 21:33 | 51.15664 | -0.17701 | 219 ft | 0 kts | 168° |
| 2026-05-03 21:51 | 51.15671 | -0.17703 | 213 ft | 4 kts | 169° |
| 2026-05-03 21:51 | 51.15697 | -0.17711 | 208 ft | 4 kts | 168° |
| 2026-05-03 21:52 | 51.15720 | -0.17720 | 208 ft | 4 kts | 149° |
| 2026-05-03 21:52 | 51.15735 | -0.17747 | 216 ft | 4 kts | 92° |
| 2026-05-03 21:52 | 51.15730 | -0.17787 | 213 ft | 4 kts | 64° |
| 2026-05-03 21:52 | 51.15718 | -0.17825 | 216 ft | 4 kts | 73° |
| 2026-05-03 21:53 | 51.15717 | -0.17834 | 215 ft | 0 kts | 78° |
| 2026-05-03 21:59 | 51.15718 | -0.17823 | 208 ft | 3 kts | 78° |
| 2026-05-03 21:59 | 51.15724 | -0.17783 | 214 ft | 4 kts | 74° |
| 2026-05-03 21:59 | 51.15732 | -0.17727 | 208 ft | 6 kts | 77° |
| 2026-05-03 21:59 | 51.15743 | -0.17651 | 211 ft | 8 kts | 77° |
| 2026-05-03 22:00 | 51.15755 | -0.17555 | 214 ft | 8 kts | 86° |
| 2026-05-03 22:00 | 51.15721 | -0.17501 | 210 ft | 8 kts | 167° |
| 2026-05-03 22:00 | 51.15659 | -0.17481 | 213 ft | 10 kts | 167° |
| 2026-05-03 22:00 | 51.15581 | -0.17453 | 212 ft | 13 kts | 167° |
| 2026-05-03 22:01 | 51.15488 | -0.17421 | 213 ft | 15 kts | 168° |
| 2026-05-03 22:01 | 51.15380 | -0.17384 | 213 ft | 15 kts | 168° |
| 2026-05-03 22:01 | 51.15279 | -0.17347 | 214 ft | 13 kts | 160° |
| 2026-05-03 22:01 | 51.15242 | -0.17254 | 208 ft | 9 kts | 79° |
| 2026-05-03 22:02 | 51.15260 | -0.17145 | 217 ft | 11 kts | 78° |
| 2026-05-03 22:02 | 51.15277 | -0.17014 | 214 ft | 13 kts | 78° |
| 2026-05-03 22:02 | 51.15294 | -0.16882 | 211 ft | 9 kts | 86° |
| 2026-05-03 22:02 | 51.15282 | -0.16837 | 211 ft | 0 kts | 141° |
| 2026-05-03 22:06 | 51.15279 | -0.16833 | 210 ft | 3 kts | 147° |
| 2026-05-03 22:06 | 51.15233 | -0.16812 | 216 ft | 8 kts | 166° |
| 2026-05-03 22:06 | 51.15175 | -0.16791 | 209 ft | 10 kts | 171° |
| 2026-05-03 22:07 | 51.15117 | -0.16834 | 214 ft | 11 kts | 250° |
| 2026-05-03 22:07 | 51.15115 | -0.16849 | 214 ft | 0 kts | 256° |
| 2026-05-03 22:09 | 51.15087 | -0.17049 | 219 ft | 60 kts | 258° |
| 2026-05-03 22:09 | 51.14931 | -0.18173 | 213 ft | 146 kts | 257° |
| 2026-05-03 22:09 | 51.14689 | -0.19943 | 705 ft | 168 kts | 256° |
| 2026-05-03 22:10 | 51.14221 | -0.23502 | 2781 ft | 177 kts | 259° |
| 2026-05-03 22:10 | 51.14001 | -0.25526 | 3874 ft | 194 kts | 259° |
| 2026-05-03 22:10 | 51.13831 | -0.27782 | 4856 ft | 218 kts | 270° |
| 2026-05-03 22:10 | 51.14257 | -0.30179 | 5587 ft | 235 kts | 301° |
| 2026-05-03 22:11 | 51.15512 | -0.31848 | 5945 ft | 242 kts | 337° |
| 2026-05-03 22:11 | 51.17171 | -0.32046 | 5994 ft | 244 kts | 14° |
| 2026-05-03 22:11 | 51.18613 | -0.30677 | 5994 ft | 244 kts | 50° |
| 2026-05-03 22:11 | 51.19361 | -0.28304 | 6083 ft | 244 kts | 76° |
| 2026-05-03 22:12 | 51.19736 | -0.25629 | 6794 ft | 255 kts | 80° |
| 2026-05-03 22:12 | 51.20074 | -0.22862 | 8138 ft | 253 kts | 81° |
| 2026-05-03 22:12 | 51.20413 | -0.20103 | 9497 ft | 257 kts | 81° |
| 2026-05-03 22:12 | 51.20772 | -0.17192 | 10335 ft | 279 kts | 80° |
| 2026-05-03 22:13 | 51.21170 | -0.14057 | 11175 ft | 301 kts | 80° |
| 2026-05-03 22:13 | 51.21608 | -0.10663 | 11872 ft | 326 kts | 80° |
| 2026-05-03 22:13 | 51.22080 | -0.07028 | 12566 ft | 341 kts | 80° |
| 2026-05-03 22:13 | 51.22565 | -0.03315 | 12889 ft | 343 kts | 80° |
| 2026-05-03 22:14 | 51.23051 | 0.00404 | 12947 ft | 344 kts | 80° |
| 2026-05-03 22:14 | 51.23540 | 0.04170 | 12957 ft | 346 kts | 80° |
| 2026-05-03 22:14 | 51.24028 | 0.07931 | 12967 ft | 347 kts | 80° |
| 2026-05-03 22:14 | 51.24511 | 0.11670 | 12984 ft | 347 kts | 80° |
| 2026-05-03 22:15 | 51.25024 | 0.15434 | 12984 ft | 347 kts | 76° |
| 2026-05-03 22:15 | 51.25953 | 0.19020 | 13303 ft | 355 kts | 60° |
| 2026-05-03 22:15 | 51.27519 | 0.21983 | 14288 ft | 363 kts | 40° |
| 2026-05-03 22:15 | 51.29725 | 0.23927 | 15561 ft | 365 kts | 17° |
| 2026-05-03 22:16 | 51.32237 | 0.24358 | 16712 ft | 366 kts | 352° |
| 2026-05-03 22:16 | 51.34696 | 0.23348 | 17777 ft | 367 kts | 337° |
| 2026-05-03 22:16 | 51.37026 | 0.21648 | 18787 ft | 370 kts | 329° |
| 2026-05-03 22:16 | 51.39288 | 0.19610 | 19701 ft | 376 kts | 326° |
| 2026-05-03 22:17 | 51.41543 | 0.17426 | 20618 ft | 382 kts | 325° |
| 2026-05-03 22:17 | 51.43831 | 0.15207 | 21530 ft | 388 kts | 326° |
| 2026-05-03 22:17 | 51.46170 | 0.12994 | 22419 ft | 393 kts | 326° |
| 2026-05-03 22:17 | 51.48560 | 0.10798 | 23282 ft | 399 kts | 327° |
| 2026-05-03 22:18 | 51.51004 | 0.08605 | 24009 ft | 405 kts | 327° |
| 2026-05-03 22:18 | 51.53490 | 0.06406 | 24700 ft | 410 kts | 327° |
| 2026-05-03 22:18 | 51.56003 | 0.04197 | 25376 ft | 415 kts | 327° |
| 2026-05-03 22:18 | 51.58547 | 0.01964 | 26035 ft | 419 kts | 328° |
| 2026-05-03 22:19 | 51.61117 | -0.00296 | 26699 ft | 423 kts | 328° |
| 2026-05-03 22:19 | 51.63704 | -0.02576 | 27352 ft | 427 kts | 328° |
| 2026-05-03 22:19 | 51.66331 | -0.04899 | 27942 ft | 432 kts | 328° |
| 2026-05-03 22:19 | 51.68977 | -0.07245 | 28539 ft | 436 kts | 327° |
| 2026-05-03 22:20 | 51.71644 | -0.09614 | 29119 ft | 440 kts | 327° |
| 2026-05-03 22:20 | 51.74342 | -0.12015 | 29701 ft | 444 kts | 327° |
| 2026-05-03 22:20 | 51.77057 | -0.14436 | 30205 ft | 448 kts | 327° |
| 2026-05-03 22:20 | 51.79403 | -0.16529 | 30709 ft | 448 kts | 327° |
| 2026-05-03 22:21 | 51.82125 | -0.18960 | 31317 ft | 447 kts | 327° |
| 2026-05-03 22:21 | 51.84844 | -0.21393 | 31924 ft | 446 kts | 327° |
| 2026-05-03 22:21 | 51.87558 | -0.23828 | 32503 ft | 447 kts | 327° |
| 2026-05-03 22:21 | 51.90277 | -0.26272 | 33065 ft | 447 kts | 327° |
| 2026-05-03 22:22 | 51.92994 | -0.28717 | 33622 ft | 447 kts | 327° |
| 2026-05-03 22:22 | 51.95710 | -0.31166 | 34116 ft | 447 kts | 327° |
| 2026-05-03 22:22 | 51.98426 | -0.33618 | 34584 ft | 446 kts | 327° |
| 2026-05-03 22:22 | 52.01134 | -0.36065 | 35093 ft | 444 kts | 327° |
| 2026-05-03 22:23 | 52.03821 | -0.38495 | 35601 ft | 442 kts | 327° |
| 2026-05-03 22:23 | 52.06508 | -0.40930 | 36099 ft | 441 kts | 327° |
| 2026-05-03 22:23 | 52.09179 | -0.43378 | 36538 ft | 440 kts | 327° |
| 2026-05-03 22:23 | 52.11825 | -0.45886 | 36963 ft | 440 kts | 326° |
| 2026-05-03 22:24 | 52.14453 | -0.48426 | 37379 ft | 439 kts | 326° |
| 2026-05-03 22:24 | 52.17036 | -0.50948 | 37792 ft | 439 kts | 326° |
| 2026-05-03 22:24 | 52.19662 | -0.53518 | 37922 ft | 441 kts | 326° |
| 2026-05-03 22:25 | 52.24905 | -0.58645 | 37923 ft | 439 kts | 326° |
| 2026-05-03 22:25 | 52.30151 | -0.63769 | 37924 ft | 439 kts | 326° |
| 2026-05-03 22:26 | 52.35400 | -0.68904 | 37929 ft | 440 kts | 326° |
| 2026-05-03 22:26 | 52.40650 | -0.74052 | 37933 ft | 440 kts | 326° |
| 2026-05-03 22:27 | 52.45897 | -0.79212 | 37931 ft | 440 kts | 326° |
| 2026-05-03 22:27 | 52.51141 | -0.84384 | 37937 ft | 440 kts | 326° |
| 2026-05-03 22:28 | 52.56371 | -0.89556 | 37936 ft | 438 kts | 326° |
| 2026-05-03 22:28 | 52.61597 | -0.94740 | 37931 ft | 438 kts | 326° |
| 2026-05-03 22:29 | 52.66805 | -0.99920 | 37922 ft | 437 kts | 326° |
| 2026-05-03 22:29 | 52.72006 | -1.05108 | 37925 ft | 436 kts | 326° |
| 2026-05-03 22:30 | 52.77193 | -1.10297 | 37965 ft | 435 kts | 326° |
| 2026-05-03 22:30 | 52.82354 | -1.15474 | 37965 ft | 433 kts | 326° |
| 2026-05-03 22:31 | 52.87498 | -1.20649 | 37965 ft | 433 kts | 326° |
| 2026-05-03 22:31 | 52.92636 | -1.25832 | 37965 ft | 432 kts | 326° |
| 2026-05-03 22:32 | 52.97775 | -1.31031 | 37962 ft | 432 kts | 326° |
| 2026-05-03 22:32 | 53.02900 | -1.36231 | 37961 ft | 432 kts | 326° |
| 2026-05-03 22:33 | 53.08057 | -1.41344 | 37959 ft | 432 kts | 328° |
| 2026-05-03 22:33 | 53.13322 | -1.46175 | 37961 ft | 432 kts | 329° |
| 2026-05-03 22:34 | 53.18603 | -1.50952 | 37964 ft | 432 kts | 329° |
| 2026-05-03 22:34 | 53.23871 | -1.55764 | 37964 ft | 432 kts | 329° |
| 2026-05-03 22:35 | 53.29140 | -1.60619 | 37971 ft | 432 kts | 329° |
| 2026-05-03 22:35 | 53.34393 | -1.65483 | 37977 ft | 432 kts | 329° |
| 2026-05-03 22:36 | 53.39662 | -1.70376 | 37978 ft | 432 kts | 329° |
| 2026-05-03 22:36 | 53.44919 | -1.75270 | 37982 ft | 432 kts | 329° |
| 2026-05-03 22:37 | 53.50177 | -1.80178 | 37982 ft | 432 kts | 329° |
| 2026-05-03 22:37 | 53.55433 | -1.85100 | 37988 ft | 432 kts | 329° |
| 2026-05-03 22:38 | 53.60693 | -1.90038 | 37985 ft | 432 kts | 329° |
| 2026-05-03 22:38 | 53.65940 | -1.94978 | 37985 ft | 432 kts | 328° |
| 2026-05-03 22:39 | 53.71190 | -1.99936 | 37988 ft | 432 kts | 329° |
| 2026-05-03 22:39 | 53.76428 | -2.04896 | 37990 ft | 431 kts | 329° |
| 2026-05-03 22:40 | 53.81653 | -2.09859 | 37990 ft | 430 kts | 329° |
| 2026-05-03 22:40 | 53.86868 | -2.14827 | 37990 ft | 430 kts | 329° |
| 2026-05-03 22:41 | 53.92086 | -2.19811 | 37992 ft | 430 kts | 329° |
| 2026-05-03 22:41 | 53.97261 | -2.24769 | 37993 ft | 430 kts | 329° |
| 2026-05-03 22:42 | 54.02598 | -2.29496 | 38000 ft | 430 kts | 335° |
| 2026-05-03 22:42 | 54.08085 | -2.33394 | 37996 ft | 430 kts | 336° |
| 2026-05-03 22:43 | 54.13628 | -2.37252 | 37999 ft | 430 kts | 336° |
| 2026-05-03 22:43 | 54.19180 | -2.41113 | 37999 ft | 430 kts | 336° |
| 2026-05-03 22:44 | 54.24720 | -2.44972 | 37757 ft | 429 kts | 336° |
| 2026-05-03 22:44 | 54.27479 | -2.46898 | 37487 ft | 429 kts | 336° |
| 2026-05-03 22:44 | 54.30248 | -2.48834 | 37224 ft | 429 kts | 336° |
| 2026-05-03 22:44 | 54.33008 | -2.50765 | 36761 ft | 427 kts | 336° |
| 2026-05-03 22:45 | 54.35751 | -2.52688 | 36228 ft | 425 kts | 336° |
| 2026-05-03 22:45 | 54.38482 | -2.54605 | 35680 ft | 423 kts | 336° |
| 2026-05-03 22:45 | 54.41197 | -2.56513 | 35093 ft | 422 kts | 336° |
| 2026-05-03 22:45 | 54.43913 | -2.58426 | 34529 ft | 421 kts | 336° |
| 2026-05-03 22:46 | 54.46614 | -2.60330 | 33959 ft | 419 kts | 336° |
| 2026-05-03 22:46 | 54.49312 | -2.62235 | 33255 ft | 418 kts | 337° |
| 2026-05-03 22:46 | 54.52000 | -2.64136 | 32532 ft | 418 kts | 337° |
| 2026-05-03 22:46 | 54.54679 | -2.66033 | 31808 ft | 417 kts | 337° |
| 2026-05-03 22:47 | 54.57369 | -2.67940 | 31078 ft | 417 kts | 337° |
| 2026-05-03 22:47 | 54.60050 | -2.69845 | 30371 ft | 416 kts | 338° |
| 2026-05-03 22:47 | 54.61818 | -2.71102 | 29944 ft | 414 kts | 339° |
| 2026-05-03 22:47 | 54.65370 | -2.73630 | 28856 ft | 411 kts | 338° |
| 2026-05-03 22:48 | 54.67117 | -2.74876 | 28342 ft | 410 kts | 338° |
| 2026-05-03 22:48 | 54.70591 | -2.77355 | 27373 ft | 406 kts | 338° |
| 2026-05-03 22:48 | 54.72350 | -2.78612 | 26910 ft | 404 kts | 338° |
| 2026-05-03 22:48 | 54.74929 | -2.80459 | 26374 ft | 397 kts | 339° |
| 2026-05-03 22:49 | 54.78282 | -2.82862 | 25520 ft | 392 kts | 338° |
| 2026-05-03 22:49 | 54.79979 | -2.84080 | 25077 ft | 391 kts | 338° |
| 2026-05-03 22:49 | 54.82487 | -2.85882 | 24416 ft | 389 kts | 337° |
| 2026-05-03 22:49 | 54.84975 | -2.87672 | 23787 ft | 387 kts | 337° |
| 2026-05-03 22:50 | 54.87455 | -2.89459 | 23078 ft | 385 kts | 337° |
| 2026-05-03 22:50 | 54.89913 | -2.91233 | 22398 ft | 381 kts | 337° |
| 2026-05-03 22:50 | 54.92350 | -2.92994 | 21749 ft | 377 kts | 337° |
| 2026-05-03 22:50 | 54.94728 | -2.94714 | 21106 ft | 373 kts | 337° |
| 2026-05-03 22:51 | 54.97147 | -2.96467 | 20454 ft | 370 kts | 337° |
| 2026-05-03 22:51 | 54.99509 | -2.98180 | 19828 ft | 366 kts | 337° |
| 2026-05-03 22:51 | 55.01842 | -2.99875 | 19206 ft | 362 kts | 336° |
| 2026-05-03 22:51 | 55.04133 | -3.01541 | 18585 ft | 360 kts | 336° |
| 2026-05-03 22:52 | 55.06434 | -3.03216 | 17910 ft | 357 kts | 336° |
| 2026-05-03 22:52 | 55.08709 | -3.04875 | 17232 ft | 353 kts | 336° |
| 2026-05-03 22:52 | 55.10997 | -3.06545 | 16571 ft | 349 kts | 337° |
| 2026-05-03 22:52 | 55.13195 | -3.08151 | 15949 ft | 345 kts | 337° |
| 2026-05-03 22:53 | 55.15397 | -3.09763 | 15323 ft | 342 kts | 337° |
| 2026-05-03 22:53 | 55.17578 | -3.11361 | 14709 ft | 338 kts | 337° |
| 2026-05-03 22:53 | 55.19737 | -3.12944 | 14113 ft | 334 kts | 337° |
| 2026-05-03 22:53 | 55.21875 | -3.14514 | 13665 ft | 333 kts | 337° |
| 2026-05-03 22:54 | 55.24008 | -3.16082 | 13438 ft | 333 kts | 336° |
| 2026-05-03 22:54 | 55.26136 | -3.17648 | 13189 ft | 329 kts | 336° |
| 2026-05-03 22:54 | 55.28201 | -3.19155 | 12889 ft | 315 kts | 338° |
| 2026-05-03 22:54 | 55.30283 | -3.20087 | 12591 ft | 304 kts | 354° |
| 2026-05-03 22:55 | 55.32363 | -3.20072 | 12302 ft | 296 kts | 2° |
| 2026-05-03 22:55 | 55.34403 | -3.19781 | 12008 ft | 293 kts | 4° |
| 2026-05-03 22:55 | 55.36432 | -3.19448 | 11738 ft | 292 kts | 4° |
| 2026-05-03 22:55 | 55.38453 | -3.19116 | 11461 ft | 292 kts | 4° |
| 2026-05-03 22:56 | 55.40470 | -3.18790 | 11119 ft | 289 kts | 4° |
| 2026-05-03 22:56 | 55.42463 | -3.18472 | 10651 ft | 287 kts | 4° |
| 2026-05-03 22:56 | 55.44452 | -3.18157 | 10159 ft | 286 kts | 4° |
| 2026-05-03 22:56 | 55.46432 | -3.17845 | 9656 ft | 285 kts | 4° |
| 2026-05-03 22:57 | 55.48402 | -3.17535 | 9145 ft | 283 kts | 4° |
| 2026-05-03 22:57 | 55.50350 | -3.17229 | 8680 ft | 279 kts | 4° |
| 2026-05-03 22:57 | 55.52268 | -3.16927 | 8201 ft | 276 kts | 4° |
| 2026-05-03 22:57 | 55.54172 | -3.16628 | 7780 ft | 273 kts | 4° |
| 2026-05-03 22:58 | 55.56027 | -3.16334 | 7596 ft | 261 kts | 4° |
| 2026-05-03 22:58 | 55.57796 | -3.16054 | 7407 ft | 250 kts | 4° |
| 2026-05-03 22:58 | 55.59519 | -3.15783 | 7164 ft | 248 kts | 4° |
| 2026-05-03 22:58 | 55.61229 | -3.15514 | 7034 ft | 246 kts | 4° |
| 2026-05-03 22:59 | 55.62937 | -3.15246 | 6984 ft | 246 kts | 4° |
| 2026-05-03 22:59 | 55.64640 | -3.14977 | 6831 ft | 245 kts | 4° |
| 2026-05-03 22:59 | 55.66335 | -3.14709 | 6673 ft | 245 kts | 4° |
| 2026-05-03 22:59 | 55.68030 | -3.14440 | 6553 ft | 244 kts | 4° |
| 2026-05-03 23:00 | 55.69721 | -3.14454 | 6413 ft | 242 kts | 349° |
| 2026-05-03 23:00 | 55.71257 | -3.15581 | 6279 ft | 241 kts | 323° |
| 2026-05-03 23:00 | 55.72309 | -3.17858 | 6144 ft | 242 kts | 297° |
| 2026-05-03 23:00 | 55.72880 | -3.20674 | 6017 ft | 243 kts | 288° |
| 2026-05-03 23:01 | 55.73328 | -3.23567 | 5877 ft | 243 kts | 287° |
| 2026-05-03 23:01 | 55.73764 | -3.26471 | 5746 ft | 243 kts | 287° |
| 2026-05-03 23:01 | 55.74204 | -3.29367 | 5609 ft | 243 kts | 287° |
| 2026-05-03 23:01 | 55.74647 | -3.32245 | 5476 ft | 241 kts | 287° |
| 2026-05-03 23:02 | 55.75092 | -3.35106 | 5340 ft | 240 kts | 287° |
| 2026-05-03 23:02 | 55.75538 | -3.37970 | 5197 ft | 240 kts | 286° |
| 2026-05-03 23:02 | 55.75979 | -3.40787 | 5084 ft | 240 kts | 286° |
| 2026-05-03 23:02 | 55.76425 | -3.43643 | 4948 ft | 240 kts | 286° |
| 2026-05-03 23:03 | 55.76870 | -3.46493 | 4814 ft | 240 kts | 286° |
| 2026-05-03 23:03 | 55.77314 | -3.49341 | 4681 ft | 239 kts | 286° |
| 2026-05-03 23:03 | 55.77758 | -3.52187 | 4547 ft | 239 kts | 286° |
| 2026-05-03 23:03 | 55.78198 | -3.55017 | 4424 ft | 238 kts | 286° |
| 2026-05-03 23:04 | 55.78637 | -3.57847 | 4287 ft | 237 kts | 286° |
| 2026-05-03 23:04 | 55.79073 | -3.60659 | 4157 ft | 231 kts | 286° |
| 2026-05-03 23:04 | 55.79489 | -3.63337 | 4021 ft | 219 kts | 287° |
| 2026-05-03 23:04 | 55.80076 | -3.65726 | 3973 ft | 204 kts | 304° |
| 2026-05-03 23:05 | 55.81040 | -3.67416 | 3973 ft | 189 kts | 328° |
| 2026-05-03 23:05 | 55.82208 | -3.68191 | 4005 ft | 172 kts | 350° |
| 2026-05-03 23:05 | 55.83331 | -3.68128 | 3977 ft | 154 kts | 11° |
| 2026-05-03 23:05 | 55.84258 | -3.67464 | 4003 ft | 134 kts | 28° |
| 2026-05-03 23:06 | 55.84958 | -3.66440 | 3868 ft | 130 kts | 45° |
| 2026-05-03 23:06 | 55.85494 | -3.65159 | 3644 ft | 129 kts | 54° |
| 2026-05-03 23:06 | 55.85965 | -3.63800 | 3444 ft | 129 kts | 56° |
| 2026-05-03 23:06 | 55.86426 | -3.62452 | 3264 ft | 129 kts | 56° |
| 2026-05-03 23:07 | 55.86899 | -3.61072 | 3083 ft | 129 kts | 56° |
| 2026-05-03 23:07 | 55.87364 | -3.59711 | 2909 ft | 129 kts | 56° |
| 2026-05-03 23:07 | 55.87828 | -3.58350 | 2729 ft | 128 kts | 56° |
| 2026-05-03 23:07 | 55.88285 | -3.57008 | 2557 ft | 128 kts | 57° |
| 2026-05-03 23:08 | 55.88746 | -3.55653 | 2391 ft | 128 kts | 57° |
| 2026-05-03 23:08 | 55.89205 | -3.54303 | 2205 ft | 127 kts | 57° |
| 2026-05-03 23:08 | 55.89663 | -3.52955 | 2032 ft | 127 kts | 58° |
| 2026-05-03 23:08 | 55.90121 | -3.51610 | 1854 ft | 127 kts | 58° |
| 2026-05-03 23:09 | 55.90576 | -3.50269 | 1682 ft | 126 kts | 58° |
| 2026-05-03 23:09 | 55.91030 | -3.48934 | 1501 ft | 126 kts | 58° |
| 2026-05-03 23:09 | 55.91481 | -3.47607 | 1326 ft | 125 kts | 59° |
| 2026-05-03 23:09 | 55.91930 | -3.46283 | 1145 ft | 124 kts | 59° |
| 2026-05-03 23:10 | 55.92376 | -3.44971 | 969 ft | 123 kts | 59° |
| 2026-05-03 23:10 | 55.92818 | -3.43668 | 801 ft | 122 kts | 58° |
| 2026-05-03 23:10 | 55.93257 | -3.42375 | 641 ft | 122 kts | 58° |
| 2026-05-03 23:10 | 55.93694 | -3.41085 | 466 ft | 121 kts | 58° |
| 2026-05-03 23:11 | 55.94129 | -3.39803 | 284 ft | 121 kts | 58° |
| 2026-05-03 23:11 | 55.94555 | -3.38540 | 137 ft | 114 kts | 58° |
| 2026-05-03 23:11 | 55.94919 | -3.37485 | 110 ft | 77 kts | 58° |
| 2026-05-03 23:11 | 55.95107 | -3.36932 | 112 ft | 28 kts | 58° |
| 2026-05-03 23:12 | 55.95156 | -3.36793 | 112 ft | 19 kts | 58° |
| 2026-05-03 23:12 | 55.95235 | -3.36564 | 106 ft | 25 kts | 58° |
| 2026-05-03 23:12 | 55.95332 | -3.36277 | 102 ft | 29 kts | 60° |
| 2026-05-03 23:12 | 55.95440 | -3.35951 | 102 ft | 32 kts | 58° |
| 2026-05-03 23:13 | 55.95552 | -3.35619 | 105 ft | 28 kts | 59° |
| 2026-05-03 23:13 | 55.95538 | -3.35480 | 104 ft | 12 kts | 147° |
| 2026-05-03 23:13 | 55.95465 | -3.35406 | 106 ft | 12 kts | 164° |
| 2026-05-03 23:13 | 55.95405 | -3.35471 | 109 ft | 11 kts | 238° |
| 2026-05-03 23:14 | 55.95361 | -3.35599 | 108 ft | 14 kts | 238° |
| 2026-05-03 23:14 | 55.95301 | -3.35779 | 105 ft | 19 kts | 239° |
| 2026-05-03 23:14 | 55.95228 | -3.36001 | 104 ft | 23 kts | 239° |
| 2026-05-03 23:14 | 55.95145 | -3.36247 | 107 ft | 24 kts | 239° |
| 2026-05-03 23:15 | 55.95061 | -3.36392 | 110 ft | 13 kts | 168° |
| 2026-05-03 23:15 | 55.95016 | -3.36404 | 109 ft | 5 kts | 220° |
| 2026-05-03 23:15 | 55.94988 | -3.36460 | 110 ft | 5 kts | 217° |
| 2026-05-03 23:15 | 55.94944 | -3.36473 | 109 ft | 8 kts | 165° |
| 2026-05-03 23:16 | 55.94918 | -3.36443 | 109 ft | 0 kts | 142° |